createdAt,value
2022-09-28T00:00:24.182Z,1.65
2022-09-28T00:02:26.601Z,1.38
2022-09-28T00:04:28.337Z,1.10
2022-09-28T00:06:30.783Z,1.55
2022-09-28T00:08:32.503Z,1.20
2022-09-28T00:10:34.142Z,1.60
2022-09-28T00:12:35.741Z,1.20
2022-09-28T00:14:37.470Z,1.13
2022-09-28T00:16:43.566Z,1.10
2022-09-28T00:18:45.797Z,1.42
2022-09-28T00:20:47.364Z,1.45
2022-09-28T00:22:49.033Z,1.63
2022-09-28T00:24:50.790Z,1.00
2022-09-28T00:26:55.094Z,0.85
2022-09-28T00:29:01.627Z,1.33
2022-09-28T00:31:03.332Z,1.10
2022-09-28T00:33:05.043Z,1.30
2022-09-28T00:35:09.834Z,0.93
2022-09-28T00:37:13.472Z,0.80
2022-09-28T00:39:16.016Z,1.00
2022-09-28T00:41:17.771Z,1.20
2022-09-28T00:43:20.359Z,1.05
2022-09-28T00:45:23.941Z,0.80
2022-09-28T00:47:42.098Z,0.80
2022-09-28T00:49:57.708Z,0.80
2022-09-28T00:52:00.081Z,0.75
2022-09-28T00:54:03.748Z,0.65
2022-09-28T00:56:07.617Z,0.82
2022-09-28T00:58:11.933Z,0.68
2022-09-28T01:00:13.944Z,0.80
2022-09-28T01:02:15.718Z,1.00
2022-09-28T01:04:18.220Z,0.90
2022-09-28T01:06:22.438Z,0.80
2022-09-28T01:08:25.036Z,0.80
2022-09-28T01:10:28.258Z,0.80
2022-09-28T01:12:32.055Z,0.63
2022-09-28T01:14:34.732Z,0.77
2022-09-28T01:16:43.129Z,0.60
2022-09-28T01:19:11.983Z,0.80
2022-09-28T01:21:25.001Z,0.70
2022-09-28T01:24:01.001Z,0.90
2022-09-28T01:26:48.792Z,0.93
2022-09-28T01:28:55.429Z,0.98
2022-09-28T01:31:13.972Z,0.95
2022-09-28T01:33:23.766Z,1.00
2022-09-28T01:35:40.023Z,1.00
2022-09-28T01:37:51.982Z,1.00
2022-09-28T01:39:54.231Z,1.00
2022-09-28T01:41:57.236Z,1.30
2022-09-28T01:44:03.040Z,0.90
2022-09-28T01:46:04.744Z,1.30
2022-09-28T01:48:07.842Z,1.73
2022-09-28T01:50:15.489Z,1.60
2022-09-28T01:52:21.519Z,1.20
2022-09-28T01:54:31.782Z,1.38
2022-09-28T01:57:19.835Z,1.55
2022-09-28T01:59:45.206Z,1.48
2022-09-28T02:01:55.497Z,1.58
2022-09-28T02:04:02.546Z,1.73
2022-09-28T02:06:11.019Z,2.10
2022-09-28T02:08:29.331Z,1.40
2022-09-28T02:10:38.165Z,1.48
2022-09-28T02:12:43.653Z,1.63
2022-09-28T02:14:47.458Z,1.85
2022-09-28T02:16:51.695Z,1.98
2022-09-28T02:18:53.479Z,2.05
2022-09-28T02:21:09.711Z,1.80
2022-09-28T02:23:11.490Z,2.25
2022-09-28T02:25:34.926Z,2.00
2022-09-28T02:27:41.666Z,2.05
2022-09-28T02:29:43.441Z,1.60
2022-09-28T02:31:45.199Z,2.03
2022-09-28T02:33:48.176Z,2.00
2022-09-28T02:35:49.787Z,1.48
2022-09-28T02:37:51.520Z,2.00
2022-09-28T02:39:53.192Z,1.58
2022-09-28T02:42:09.146Z,2.10
2022-09-28T02:44:32.014Z,1.75
2022-09-28T02:46:47.996Z,2.28
2022-09-28T02:49:31.301Z,1.50
2022-09-28T02:52:01.069Z,2.40
2022-09-28T02:54:18.883Z,2.38
2022-09-28T02:56:36.036Z,1.80
2022-09-28T02:58:45.495Z,1.60
2022-09-28T03:00:58.365Z,1.60
2022-09-28T03:03:14.803Z,1.80
2022-09-28T03:05:23.159Z,2.20
2022-09-28T03:07:29.477Z,2.17
2022-09-28T03:09:38.002Z,1.67
2022-09-28T03:11:44.212Z,2.47
2022-09-28T03:13:46.429Z,2.15
2022-09-28T03:15:49.091Z,2.35
2022-09-28T03:17:51.218Z,1.55
2022-09-28T03:19:52.829Z,2.00
2022-09-28T03:21:55.687Z,2.03
2022-09-28T03:23:57.767Z,2.00
2022-09-28T03:25:59.787Z,1.73
2022-09-28T03:28:01.637Z,1.60
2022-09-28T03:30:04.017Z,1.77
2022-09-28T03:32:05.587Z,1.67
2022-09-28T03:34:07.237Z,1.65
2022-09-28T03:36:09.694Z,2.22
2022-09-28T03:38:11.320Z,1.95
2022-09-28T03:40:13.036Z,1.55
2022-09-28T03:42:14.732Z,2.33
2022-09-28T03:44:16.459Z,2.25
2022-09-28T03:46:18.125Z,2.13
2022-09-28T03:48:31.868Z,1.90
2022-09-28T03:50:33.994Z,1.73
2022-09-28T03:52:35.566Z,2.10
2022-09-28T03:54:37.299Z,2.15
2022-09-28T03:56:40.453Z,1.95
2022-09-28T03:58:42.262Z,2.05
2022-09-28T04:00:43.976Z,1.65
2022-09-28T04:02:45.610Z,2.05
2022-09-28T04:04:47.223Z,3.65
2022-09-28T04:06:48.970Z,2.17
2022-09-28T04:08:50.848Z,2.92
2022-09-28T04:10:53.259Z,2.00
2022-09-28T04:12:56.263Z,2.75
2022-09-28T04:14:57.979Z,2.55
2022-09-28T04:16:59.624Z,2.30
2022-09-28T04:19:01.274Z,2.33
2022-09-28T04:21:07.206Z,2.50
2022-09-28T04:23:08.828Z,3.08
2022-09-28T04:25:10.747Z,2.42
2022-09-28T04:27:30.791Z,2.42
2022-09-28T04:29:32.449Z,2.40
2022-09-28T04:31:43.801Z,3.20
2022-09-28T04:33:45.576Z,5.63
2022-09-28T04:35:47.169Z,2.15
2022-09-28T04:37:48.754Z,2.55
2022-09-28T04:39:50.348Z,2.40
2022-09-28T04:41:51.996Z,2.10
2022-09-28T04:43:56.184Z,2.85
2022-09-28T04:45:59.905Z,2.72
2022-09-28T04:48:01.886Z,2.65
2022-09-28T04:50:03.618Z,2.45
2022-09-28T04:52:05.969Z,2.85
2022-09-28T04:54:07.587Z,2.85
2022-09-28T04:56:11.930Z,2.42
2022-09-28T04:58:13.495Z,2.80
2022-09-28T05:00:15.376Z,3.65
2022-09-28T05:02:17.102Z,2.67
2022-09-28T05:04:22.319Z,2.95
2022-09-28T05:06:28.676Z,2.50
2022-09-28T05:08:30.798Z,2.72
2022-09-28T05:10:33.837Z,2.75
2022-09-28T05:12:35.447Z,2.65
2022-09-28T05:14:37.060Z,2.40
2022-09-28T05:16:38.802Z,2.38
2022-09-28T05:18:40.467Z,2.22
2022-09-28T05:20:42.245Z,2.90
2022-09-28T05:22:43.873Z,2.42
2022-09-28T05:24:46.521Z,3.13
2022-09-28T05:26:48.100Z,3.15
2022-09-28T05:28:49.856Z,3.33
2022-09-28T05:30:52.301Z,2.65
2022-09-28T05:32:54.032Z,2.47
2022-09-28T05:34:56.328Z,3.20
2022-09-28T05:36:58.038Z,2.45
2022-09-28T05:38:59.722Z,3.72
2022-09-28T05:41:05.746Z,2.20
2022-09-28T05:43:08.242Z,2.22
2022-09-28T05:45:10.590Z,2.25
2022-09-28T05:47:12.582Z,2.55
2022-09-28T05:49:14.314Z,2.10
2022-09-28T05:51:15.902Z,2.33
2022-09-28T05:53:17.570Z,2.45
2022-09-28T05:55:19.315Z,2.33
2022-09-28T05:57:20.966Z,2.47
2022-09-28T05:59:22.653Z,2.67
2022-09-28T06:01:24.644Z,3.03
2022-09-28T06:03:26.420Z,3.17
2022-09-28T06:05:29.351Z,2.92
2022-09-28T06:07:30.985Z,2.58
2022-09-28T06:09:32.648Z,3.22
2022-09-28T06:11:37.276Z,3.30
2022-09-28T06:13:41.869Z,2.72
2022-09-28T06:15:44.856Z,3.08
2022-09-28T06:17:59.917Z,3.63
2022-09-28T06:20:21.835Z,2.88
2022-09-28T06:22:23.399Z,3.03
2022-09-28T06:24:25.024Z,2.88
2022-09-28T06:26:29.324Z,3.50
2022-09-28T06:28:31.132Z,3.55
2022-09-28T06:30:54.781Z,3.28
2022-09-28T06:32:58.450Z,3.72
2022-09-28T06:35:00.069Z,3.40
2022-09-28T06:37:04.921Z,3.40
2022-09-28T06:39:06.924Z,2.88
2022-09-28T06:41:09.441Z,2.17
2022-09-28T06:43:15.014Z,2.20
2022-09-28T06:45:20.067Z,1.85
2022-09-28T06:47:21.720Z,2.05
2022-09-28T06:49:23.459Z,2.88
2022-09-28T06:51:25.305Z,3.08
2022-09-28T06:53:28.503Z,2.08
2022-09-28T06:55:30.681Z,2.17
2022-09-28T06:57:32.311Z,2.35
2022-09-28T06:59:34.238Z,2.30
2022-09-28T07:01:36.194Z,2.00
2022-09-28T07:03:38.040Z,2.63
2022-09-28T07:05:48.740Z,2.08
2022-09-28T07:07:50.307Z,1.58
2022-09-28T07:09:55.529Z,1.73
2022-09-28T07:11:58.582Z,2.85
2022-09-28T07:14:00.260Z,1.88
2022-09-28T07:16:02.216Z,1.52
2022-09-28T07:18:05.409Z,2.15
2022-09-28T07:20:17.048Z,2.78
2022-09-28T07:22:29.299Z,2.88
2022-09-28T07:24:36.203Z,2.03
2022-09-28T07:26:37.826Z,2.15
2022-09-28T07:28:41.578Z,2.00
2022-09-28T07:30:44.939Z,1.60
2022-09-28T07:32:46.869Z,1.45
2022-09-28T07:34:48.847Z,1.73
2022-09-28T07:36:51.975Z,1.90
2022-09-28T07:38:53.784Z,1.98
2022-09-28T07:41:11.559Z,1.67
2022-09-28T07:43:13.555Z,1.83
2022-09-28T07:45:15.434Z,1.98
2022-09-28T07:47:18.994Z,2.08
2022-09-28T07:49:22.534Z,1.77
2022-09-28T07:51:24.232Z,1.88
2022-09-28T07:53:25.918Z,1.63
2022-09-28T07:55:27.560Z,1.58
2022-09-28T07:57:29.177Z,1.88
2022-09-28T07:59:31.804Z,1.65
2022-09-28T08:01:33.467Z,1.42
2022-09-28T08:03:35.632Z,1.60
2022-09-28T08:05:37.694Z,1.83
2022-09-28T08:07:39.377Z,1.45
2022-09-28T08:09:41.034Z,1.50
2022-09-28T08:11:44.245Z,1.10
2022-09-28T08:13:46.753Z,1.80
2022-09-28T08:15:51.461Z,1.02
2022-09-28T08:18:07.587Z,2.10
2022-09-28T08:20:32.949Z,1.52
2022-09-28T08:22:34.667Z,1.35
2022-09-28T08:24:36.274Z,1.48
2022-09-28T08:26:37.909Z,1.90
2022-09-28T08:28:39.639Z,1.50
2022-09-28T08:30:41.468Z,1.38
2022-09-28T08:32:49.296Z,1.40
2022-09-28T08:34:56.062Z,1.88
2022-09-28T08:37:00.354Z,1.38
2022-09-28T08:39:02.113Z,1.70
2022-09-28T08:41:18.361Z,1.50
2022-09-28T08:43:46.308Z,1.35
2022-09-28T08:45:48.109Z,1.58
2022-09-28T08:48:11.540Z,1.27
2022-09-28T08:50:19.188Z,1.38
2022-09-28T08:52:28.172Z,1.10
2022-09-28T08:54:46.314Z,1.15
2022-09-28T08:56:54.575Z,1.00
2022-09-28T08:59:00.292Z,1.00
2022-09-28T09:01:03.268Z,1.00
2022-09-28T09:03:13.474Z,0.77
2022-09-28T09:05:19.132Z,1.00
2022-09-28T09:07:29.549Z,0.98
2022-09-28T09:09:59.396Z,1.00
2022-09-28T09:12:14.137Z,0.77
2022-09-28T09:14:27.826Z,1.10
2022-09-28T09:16:44.620Z,1.20
2022-09-28T09:18:56.019Z,1.00
2022-09-28T09:20:59.701Z,1.50
2022-09-28T09:23:10.757Z,0.95
2022-09-28T09:25:24.131Z,0.95
2022-09-28T09:27:26.844Z,0.93
2022-09-28T09:29:51.535Z,0.98
2022-09-28T09:32:20.699Z,1.10
2022-09-28T09:34:45.448Z,0.80
2022-09-28T09:37:01.763Z,0.90
2022-09-28T09:39:18.826Z,1.17
2022-09-28T09:41:44.608Z,0.85
2022-09-28T09:43:55.954Z,0.70
2022-09-28T09:46:18.383Z,0.77
2022-09-28T09:48:25.404Z,0.80
2022-09-28T09:50:32.357Z,0.80
2022-09-28T09:52:46.905Z,0.73
2022-09-28T09:54:56.301Z,0.63
2022-09-28T09:56:57.877Z,0.90
2022-09-28T09:59:04.620Z,0.65
2022-09-28T10:01:10.587Z,0.90
2022-09-28T10:03:33.249Z,1.08
2022-09-28T10:05:35.170Z,0.80
2022-09-28T10:07:43.132Z,1.05
2022-09-28T10:09:46.667Z,0.50
2022-09-28T10:11:52.265Z,0.90
2022-09-28T10:13:54.143Z,0.70
2022-09-28T10:15:56.378Z,0.70
2022-09-28T10:18:04.346Z,0.68
2022-09-28T10:20:07.221Z,0.60
2022-09-28T10:22:14.175Z,0.93
2022-09-28T10:24:41.734Z,0.88
2022-09-28T10:26:48.555Z,1.20
2022-09-28T10:29:17.913Z,0.80
2022-09-28T10:31:38.712Z,0.80
2022-09-28T10:33:40.307Z,0.80
2022-09-28T10:35:43.179Z,0.90
2022-09-28T10:37:55.252Z,0.90
2022-09-28T10:39:57.413Z,0.60
2022-09-28T10:42:06.175Z,0.95
2022-09-28T10:44:14.603Z,0.80
2022-09-28T10:46:21.875Z,0.95
2022-09-28T10:48:23.624Z,0.82
2022-09-28T10:50:26.970Z,1.00
2022-09-28T10:52:54.929Z,1.02
2022-09-28T10:54:56.569Z,1.20
2022-09-28T10:56:59.047Z,1.15
2022-09-28T10:59:00.747Z,1.00
2022-09-28T11:01:06.260Z,0.88
2022-09-28T11:03:19.773Z,1.00
2022-09-28T11:05:23.943Z,0.90
2022-09-28T11:07:33.468Z,0.88
2022-09-28T11:09:44.968Z,0.77
2022-09-28T11:11:48.408Z,0.60
2022-09-28T11:13:56.091Z,0.85
2022-09-28T11:15:58.059Z,0.80
2022-09-28T11:18:24.146Z,0.98
2022-09-28T11:20:28.215Z,0.98
2022-09-28T11:22:33.871Z,1.00
2022-09-28T11:24:36.029Z,0.68
2022-09-28T11:26:40.870Z,0.80
2022-09-28T11:28:43.234Z,1.00
2022-09-28T11:30:48.548Z,0.70
2022-09-28T11:32:51.046Z,0.82
2022-09-28T11:34:59.471Z,0.80
2022-09-28T11:37:04.843Z,1.00
2022-09-28T11:39:13.007Z,0.80
2022-09-28T11:41:20.272Z,1.10
2022-09-28T11:43:43.553Z,0.90
2022-09-28T11:45:54.668Z,0.90
2022-09-28T11:48:01.579Z,1.00
2022-09-28T11:50:06.984Z,0.93
2022-09-28T11:53:42.071Z,0.65
2022-09-28T11:56:08.676Z,0.80
2022-09-28T11:58:32.368Z,1.27
2022-09-28T12:01:11.964Z,1.00
2022-09-28T12:03:22.842Z,0.90
2022-09-28T12:06:00.124Z,1.20
2022-09-28T12:08:11.699Z,1.48
2022-09-28T12:10:47.186Z,0.98
2022-09-28T12:12:55.258Z,1.02
2022-09-28T12:18:03.764Z,1.27
2022-09-28T12:20:20.836Z,1.13
2022-09-28T12:22:54.573Z,1.15
2022-09-28T12:24:57.752Z,1.13
2022-09-28T12:27:21.591Z,1.10
2022-09-28T12:29:52.303Z,1.20
2022-09-28T12:32:08.294Z,1.30
2022-09-28T12:34:10.148Z,0.82
2022-09-28T12:36:33.553Z,0.93
2022-09-28T12:38:41.733Z,1.17
2022-09-28T12:41:04.659Z,1.15
2022-09-28T12:44:04.910Z,1.38
2022-09-28T12:46:31.173Z,1.02
2022-09-28T12:49:47.249Z,0.90
2022-09-28T12:51:46.716Z,1.02
2022-09-28T12:54:14.316Z,0.93
2022-09-28T12:56:39.918Z,1.00
2022-09-28T12:59:25.387Z,0.90
2022-09-28T13:01:54.469Z,0.80
2022-09-28T13:06:56.097Z,0.85
2022-09-28T13:09:29.781Z,0.70
2022-09-28T13:11:45.229Z,0.93
2022-09-28T13:14:16.429Z,0.80
2022-09-28T13:16:44.239Z,1.00
2022-09-28T13:19:14.299Z,0.93
2022-09-28T13:21:39.559Z,1.02
2022-09-28T13:23:50.927Z,0.93
2022-09-28T13:26:20.123Z,1.00
2022-09-28T13:28:43.145Z,1.10
2022-09-28T13:30:45.583Z,1.58
2022-09-28T13:32:48.405Z,1.73
2022-09-28T13:34:50.704Z,0.90
2022-09-28T13:37:16.992Z,0.82
2022-09-28T13:39:35.717Z,1.48
2022-09-28T13:41:55.993Z,0.90
2022-09-28T13:44:03.691Z,0.98
2022-09-28T13:46:42.707Z,1.00
2022-09-28T13:48:58.100Z,0.95
2022-09-28T13:51:31.994Z,1.40
2022-09-28T13:54:08.263Z,1.08
2022-09-28T13:56:28.377Z,1.30
2022-09-28T13:58:55.045Z,0.93
2022-09-28T14:01:14.904Z,2.47
2022-09-28T14:03:21.686Z,1.00
2022-09-28T14:05:24.410Z,1.10
2022-09-28T14:07:35.000Z,1.10
2022-09-28T14:09:43.415Z,1.15
2022-09-28T14:12:28.173Z,1.00
2022-09-28T14:14:44.658Z,1.00
2022-09-28T14:17:06.858Z,1.10
2022-09-28T14:19:20.197Z,1.50
2022-09-28T14:21:59.656Z,1.15
2022-09-28T14:24:13.107Z,1.27
2022-09-28T14:26:42.709Z,1.20
2022-09-28T14:29:05.223Z,1.40
2022-09-28T14:31:22.419Z,1.40
2022-09-28T14:33:30.517Z,1.75
2022-09-28T14:35:51.924Z,1.85
2022-09-28T14:38:43.175Z,1.88
2022-09-28T14:41:10.687Z,1.13
2022-09-28T14:43:29.175Z,1.23
2022-09-28T14:51:32.400Z,1.30
2022-09-28T14:53:51.775Z,0.95
2022-09-28T14:56:20.313Z,1.27
2022-09-28T15:01:09.979Z,1.00
2022-09-28T15:03:20.400Z,1.02
2022-09-28T15:05:30.430Z,1.25
2022-09-28T15:08:11.032Z,1.30
2022-09-28T15:10:50.214Z,1.73
2022-09-28T15:13:03.963Z,1.83
2022-09-28T15:15:30.528Z,1.95
2022-09-28T15:17:39.455Z,2.35
2022-09-28T15:20:16.130Z,2.72
2022-09-28T15:25:39.228Z,2.88
2022-09-28T15:27:43.648Z,2.53
2022-09-28T15:30:53.059Z,2.22
2022-09-28T15:33:39.270Z,1.30
2022-09-28T15:38:24.545Z,1.83
2022-09-28T15:40:33.846Z,1.30
2022-09-28T15:43:08.530Z,1.70
2022-09-28T15:45:30.911Z,1.20
2022-09-28T15:47:43.734Z,1.27
2022-09-28T15:49:53.300Z,1.52
2022-09-28T15:51:56.208Z,2.35
2022-09-28T15:54:25.386Z,1.58
2022-09-28T15:56:27.934Z,1.85
2022-09-28T15:58:29.715Z,1.58
2022-09-28T16:00:32.266Z,1.42
2022-09-28T16:02:34.208Z,1.27
2022-09-28T16:04:48.589Z,1.33
2022-09-28T16:07:17.860Z,1.05
2022-09-28T16:09:33.134Z,1.52
2022-09-28T16:11:42.573Z,1.42
2022-09-28T16:14:13.704Z,2.92
2022-09-28T16:16:17.524Z,2.95
2022-09-28T16:18:22.088Z,3.20
2022-09-28T16:20:36.421Z,3.28
2022-09-28T16:22:38.124Z,2.92
2022-09-28T16:24:40.046Z,2.38
2022-09-28T16:26:41.656Z,4.53
2022-09-28T16:28:46.432Z,2.40
2022-09-28T16:31:14.830Z,2.08
2022-09-28T16:33:32.531Z,2.70
2022-09-28T16:35:43.199Z,2.50
2022-09-28T16:37:45.992Z,3.72
2022-09-28T16:39:47.619Z,4.05
2022-09-28T16:41:53.801Z,3.33
2022-09-28T16:44:02.248Z,2.70
2022-09-28T16:46:09.533Z,2.22
2022-09-28T16:48:16.167Z,2.72
2022-09-28T16:50:18.061Z,2.58
2022-09-28T16:52:39.574Z,2.45
2022-09-28T16:54:59.765Z,2.20
2022-09-28T16:57:02.211Z,2.30
2022-09-28T16:59:04.668Z,1.73
2022-09-28T17:01:09.833Z,2.50
2022-09-28T17:03:14.156Z,2.20
2022-09-28T17:05:16.041Z,1.95
2022-09-28T17:07:18.366Z,2.40
2022-09-28T17:09:23.348Z,3.85
2022-09-28T17:11:25.374Z,3.85
2022-09-28T17:13:33.269Z,4.00
2022-09-28T17:15:35.667Z,4.18
2022-09-28T17:17:38.239Z,3.55
2022-09-28T17:19:40.014Z,3.75
2022-09-28T17:21:41.925Z,2.92
2022-09-28T17:23:44.807Z,1.73
2022-09-28T17:25:46.701Z,2.15
2022-09-28T17:27:49.034Z,2.60
2022-09-28T17:29:51.518Z,2.08
2022-09-28T17:31:54.460Z,1.80
2022-09-28T17:33:56.170Z,2.10
2022-09-28T17:36:00.603Z,3.03
2022-09-28T17:38:02.212Z,3.25
2022-09-28T17:40:15.767Z,3.40
2022-09-28T17:42:17.430Z,3.72
2022-09-28T17:44:19.971Z,2.63
2022-09-28T17:46:27.558Z,2.30
2022-09-28T17:48:29.277Z,3.15
2022-09-28T17:50:34.067Z,2.35
2022-09-28T17:52:35.747Z,2.67
2022-09-28T17:54:37.401Z,2.58
2022-09-28T17:56:39.174Z,3.60
2022-09-28T17:58:40.798Z,3.38
2022-09-28T18:00:43.205Z,3.33
2022-09-28T18:02:45.102Z,3.13
2022-09-28T18:04:52.252Z,3.40
2022-09-28T18:06:54.281Z,3.25
2022-09-28T18:08:55.935Z,2.63
2022-09-28T18:10:57.637Z,2.97
2022-09-28T18:12:59.251Z,4.00
2022-09-28T18:15:00.906Z,3.83
2022-09-28T18:17:02.669Z,3.47
2022-09-28T18:19:04.451Z,4.10
2022-09-28T18:21:09.212Z,2.40
2022-09-28T18:23:11.011Z,2.65
2022-09-28T18:25:12.586Z,2.70
2022-09-28T18:27:14.480Z,2.80
2022-09-28T18:29:17.654Z,2.55
2022-09-28T18:31:19.399Z,2.03
2022-09-28T18:33:21.281Z,2.45
2022-09-28T18:35:23.457Z,2.42
2022-09-28T18:37:25.186Z,3.03
2022-09-28T18:39:26.869Z,3.53
2022-09-28T18:41:29.394Z,3.88
2022-09-28T18:43:35.589Z,4.53
2022-09-28T18:45:37.993Z,4.82
2022-09-28T18:47:40.047Z,5.05
2022-09-28T18:49:45.992Z,3.92
2022-09-28T18:51:48.750Z,4.15
2022-09-28T18:53:50.417Z,3.42
2022-09-28T18:55:51.993Z,4.18
2022-09-28T18:57:54.702Z,4.00
2022-09-28T18:59:56.375Z,4.50
2022-09-28T19:01:58.103Z,4.32
2022-09-28T19:04:00.979Z,3.88
2022-09-28T19:06:02.725Z,3.58
2022-09-28T19:08:04.326Z,4.00
2022-09-28T19:10:06.628Z,4.32
2022-09-28T19:12:08.240Z,4.15
2022-09-28T19:14:11.225Z,4.25
2022-09-28T19:16:18.010Z,3.70
2022-09-28T19:18:20.544Z,4.25
2022-09-28T19:20:22.256Z,3.58
2022-09-28T19:22:23.896Z,3.10
2022-09-28T19:24:25.986Z,3.25
2022-09-28T19:26:28.514Z,3.78
2022-09-28T19:28:30.769Z,4.50
2022-09-28T19:30:32.556Z,4.78
2022-09-28T19:32:34.131Z,4.90
2022-09-28T19:34:35.782Z,4.18
2022-09-28T19:36:37.410Z,4.90
2022-09-28T19:38:39.840Z,6.07
2022-09-28T19:40:41.546Z,5.97
2022-09-28T19:42:43.310Z,6.68
2022-09-28T19:44:46.384Z,6.82
2022-09-28T19:46:48.137Z,7.15
2022-09-28T19:48:49.909Z,9.15
2022-09-28T19:51:03.135Z,7.18
2022-09-28T19:53:07.238Z,8.35
2022-09-28T19:55:09.021Z,8.43
2022-09-28T19:57:11.687Z,6.15
2022-09-28T19:59:13.531Z,9.45
2022-09-28T20:01:15.233Z,11.32
2022-09-28T20:03:18.601Z,11.27
2022-09-28T20:05:20.318Z,12.35
2022-09-28T20:07:21.961Z,12.18
2022-09-28T20:09:23.619Z,8.63
2022-09-28T20:11:25.949Z,5.72
2022-09-28T20:13:33.251Z,5.40
2022-09-28T20:15:35.941Z,4.70
2022-09-28T20:17:37.723Z,4.05
2022-09-28T20:19:39.360Z,5.20
2022-09-28T20:21:41.177Z,4.97
2022-09-28T20:23:43.588Z,6.10
2022-09-28T20:25:45.244Z,5.13
2022-09-28T20:27:47.034Z,4.88
2022-09-28T20:29:48.729Z,4.00
2022-09-28T20:31:51.579Z,4.68
2022-09-28T20:33:53.367Z,7.30
2022-09-28T20:35:56.044Z,7.90
2022-09-28T20:37:59.257Z,7.65
2022-09-28T20:40:01.830Z,6.88
2022-09-28T20:42:03.483Z,6.10
2022-09-28T20:44:06.572Z,5.30
2022-09-28T20:46:10.531Z,4.53
2022-09-28T20:48:12.220Z,5.45
2022-09-28T20:50:13.967Z,5.47
2022-09-28T20:52:15.555Z,5.13
2022-09-28T20:54:17.243Z,6.43
2022-09-28T20:56:25.799Z,6.03
2022-09-28T20:58:27.746Z,5.70
2022-09-28T21:00:29.420Z,6.30
2022-09-28T21:02:31.714Z,6.35
2022-09-28T21:04:33.409Z,6.57
2022-09-28T21:06:36.721Z,7.78
2022-09-28T21:08:38.319Z,6.95
2022-09-28T21:10:43.574Z,6.13
2022-09-28T21:12:48.330Z,6.15
2022-09-28T21:14:49.959Z,4.63
2022-09-28T21:16:51.834Z,3.63
2022-09-28T21:18:53.896Z,3.00
2022-09-28T21:20:55.533Z,2.65
2022-09-28T21:22:57.134Z,3.88
2022-09-28T21:24:58.782Z,2.33
2022-09-28T21:27:00.355Z,3.10
2022-09-28T21:29:04.695Z,3.00
2022-09-28T21:31:08.270Z,2.67
2022-09-28T21:33:10.015Z,3.50
2022-09-28T21:35:11.624Z,5.88
2022-09-28T21:37:13.270Z,6.75
2022-09-28T21:39:15.013Z,7.53
2022-09-28T21:41:16.799Z,5.80
2022-09-28T21:43:18.520Z,5.68
2022-09-28T21:45:21.099Z,6.10
2022-09-28T21:47:22.729Z,6.10
2022-09-28T21:49:24.346Z,5.40
2022-09-28T21:51:25.956Z,6.22
2022-09-28T21:53:30.433Z,6.03
2022-09-28T21:55:32.095Z,5.25
2022-09-28T21:57:33.789Z,5.65
2022-09-28T21:59:35.504Z,5.95
2022-09-28T22:01:37.164Z,4.05
2022-09-28T22:03:39.267Z,3.67
2022-09-28T22:05:40.871Z,4.15
2022-09-28T22:07:42.633Z,3.95
2022-09-28T22:09:44.932Z,3.90
2022-09-28T22:11:49.055Z,3.95
2022-09-28T22:14:00.295Z,5.05
2022-09-28T22:16:02.627Z,4.60
2022-09-28T22:18:04.351Z,4.30
2022-09-28T22:20:06.671Z,4.40
2022-09-28T22:22:08.794Z,4.47
2022-09-28T22:24:10.531Z,4.72
2022-09-28T22:26:17.770Z,4.57
2022-09-28T22:28:22.833Z,3.67
2022-09-28T22:30:24.437Z,3.85
2022-09-28T22:32:27.461Z,2.83
2022-09-28T22:34:31.706Z,3.05
2022-09-28T22:36:33.666Z,3.17
2022-09-28T22:38:35.428Z,2.95
2022-09-28T22:40:38.296Z,2.42
2022-09-28T22:42:39.992Z,2.83
2022-09-28T22:44:41.720Z,2.97
2022-09-28T22:46:43.455Z,2.60
2022-09-28T22:48:50.600Z,2.45
2022-09-28T22:50:52.203Z,2.72
2022-09-28T22:52:53.862Z,3.45
2022-09-28T22:54:55.453Z,2.75
2022-09-28T22:56:57.169Z,2.63
2022-09-28T22:58:59.327Z,3.17
2022-09-28T23:01:07.971Z,3.47
2022-09-28T23:03:09.725Z,2.78
2022-09-28T23:05:12.005Z,2.80
2022-09-28T23:07:13.623Z,3.65
2022-09-28T23:09:15.321Z,3.22
2022-09-28T23:11:17.261Z,3.63
2022-09-28T23:13:19.011Z,3.25
2022-09-28T23:15:21.676Z,3.22
2022-09-28T23:17:23.287Z,3.35
2022-09-28T23:19:24.971Z,2.88
2022-09-28T23:21:27.737Z,3.67
2022-09-28T23:23:30.872Z,3.70
2022-09-28T23:25:32.483Z,3.22
2022-09-28T23:27:34.164Z,3.67
2022-09-28T23:29:35.827Z,3.28
2022-09-28T23:31:38.884Z,4.13
2022-09-28T23:33:40.661Z,3.90
2022-09-28T23:35:42.509Z,2.58
2022-09-28T23:37:44.153Z,3.53
2022-09-28T23:39:46.324Z,3.03
2022-09-28T23:41:48.001Z,3.35
2022-09-28T23:43:49.683Z,3.38
2022-09-28T23:45:51.578Z,2.80
2022-09-28T23:47:53.212Z,2.75
2022-09-28T23:49:54.883Z,2.47
2022-09-28T23:51:56.463Z,3.28
2022-09-28T23:53:58.049Z,3.03
2022-09-28T23:56:00.440Z,2.80
2022-09-28T23:58:02.043Z,2.63
